Tecumseh, MI (49286)

4:40 AM EDT on August 30, 2014 (GMT -0400)
Herrick Park | Change Station
CLOSE
Current Station
Personal Weather Station
Location: Tecumseh, MI
Elevation: 787 ft
Nearby Weather Stations

Elev 787 ft 42.01 °N, 83.93 °W | Updated 13 seconds ago

Partly Cloudy
Partly Cloudy
66.9 °F
Feels Like 66.9 °F
N
0.0
Wind Variable Wind from South
Gusts 0.0 mph

Today
High -- | Low -- °F
--% Chance of Precip.
Yesterday
High -- | Low -- °F
Precip. -- in
6:59 AM 8:12 PM
Waxing Crescent, 20% visible
Pressure 29.99 in
Visibility 10.0 miles
Clouds Few 6000 ft
Scattered Clouds 8000 ft
Dew Point 64 °F
Humidity 91%
Rainfall 0.00 in
Snow Depth Not available.
UV 0 out of 12
Pollen 8.90 out of 12
Ozone Good
PM2.5 Moderate
Flu Activity Not available.
METAR KADG 300653Z AUTO 21004KT 10SM FEW060 SCT080 20/17 A3000 RMK AO2 SLP155 T02000167

More Conditions Fewer Conditions

Pressure 29.99 in
Visibility 10.0 miles
Clouds Few 6000 ft
Scattered Clouds 8000 ft
Dew Point 64 °F
Humidity 91%
Rainfall 0.00 in
Snow Depth Not available.
UV 0 out of 12
Pollen 8.90 out of 12
Ozone Good
PM2.5 Moderate
Flu Activity Not available.
METAR KADG 300653Z AUTO 21004KT 10SM FEW060 SCT080 20/17 A3000 RMK AO2 SLP155 T02000167

More Conditions Fewer Conditions

10-Day Weather Forecast

Almanac

Astronomy

Aug. 30, 2014 Rise Set
Actual Time 6:59 AM EDT 8:12 PM EDT
Civil Twilight 6:30 AM EDT 8:41 PM EDT
Nautical Twilight 5:55 AM EDT 9:15 PM EDT
Astronomical Twilight 5:19 AM EDT 9:52 PM EDT
Moon 11:51 AM EDT 10:40 PM EDT
Length of Visible Light 14h 11m
Length of Day
13h 13m
Tomorrow will be 2m 42s shorter.
Waxing Crescent, 20% of the Moon is Illuminated
Today
Waxing Crescent
Sep 2
First Quarter
Sep 8
Full
Sep 15
Last Quarter
Sep 24
New

Today's Extremes

State Highs State Lows

Community

WunderPhotos

Upload Photos

1,748,474 photos uploaded!

Nearby

Air Quality

  Air Quality AQ Index Pollutant
Yesterday Good
OZONE
Yesterday Good
PM2.5
Current Moderate
PM2.5
Current Good
OZONE
Saturday Moderate
PM2.5
Saturday Good
OZONE
Sunday Good
OZONE
Sunday Good
PM2.5
Monday Good
OZONE
Monday Good
PM2.5
Tuesday Good
OZONE
Tuesday Good
PM2.5

Snow Depth

Station Depth Elevation
No new snow has been reported.

Earthquake Activity

City Distance Mag. Time & Date
No recent earthquake activity has been reported nearby.
Minimum magnitude displayed is 2.5.

Coastal Water Temperatures

Place Temperature
No Stations Reporting

Nearby Weather Stations